Time;durP1;ratioP1;P1;durP2;ratioP2;P2;SDS_P1;SDS_P2;PMS_P1;PMS_P2;Temp;Humidity;BMP_temperature;BMP_pressure;BME280_temperature;BME280_humidity;BME280_pressure;Samples;Min_cycle;Max_cycle;Signal;HPM_P1;HPM_P2
2022/09/12 00:02:14;;;;;;;4.13;1.07;;;;;;;19.96;56.06;96716.75;10544114;28;20032;-27
2022/09/12 00:07:14;;;;;;;2.40;1.30;;;;;;;19.94;56.05;96710.84;10545209;28;20040;-26
2022/09/12 00:12:15;;;;;;;3.13;1.10;;;;;;;19.94;56.26;96710.84;10550953;28;20031;-26
2022/09/12 00:17:15;;;;;;;2.23;1.13;;;;;;;19.94;56.19;96705.78;10545603;28;20043;-26
2022/09/12 00:22:15;;;;;;;1.60;1.13;;;;;;;19.95;56.10;96704.91;10540435;28;20111;-25
2022/09/12 00:27:16;;;;;;;1.60;1.03;;;;;;;20.00;55.77;96693.03;10549323;28;20038;-27
2022/09/12 00:32:16;;;;;;;2.58;1.13;;;;;;;20.01;55.90;96694.72;10541025;28;20054;-27
2022/09/12 00:37:17;;;;;;;2.72;1.02;;;;;;;19.98;55.87;96689.63;10539972;28;20267;-27
2022/09/12 00:42:17;;;;;;;2.03;1.17;;;;;;;19.97;55.83;96690.50;10556615;28;20050;-27
2022/09/12 00:47:25;;;;;;;1.27;1.10;;;;;;;19.95;55.97;96687.13;10548791;28;20062;-26
2022/09/12 00:52:49;;;;;;;1.25;0.98;;;;;;;19.90;56.18;96686.31;10552115;28;20365;-26
2022/09/12 00:57:58;;;;;;;2.47;0.95;;;;;;;19.91;55.73;96682.94;10549343;28;20502;-27
2022/09/12 01:03:07;;;;;;;1.02;0.85;;;;;;;19.93;56.05;96678.69;10552055;28;20031;-28
2022/09/12 01:08:07;;;;;;;3.13;1.10;;;;;;;19.90;55.95;96687.16;10549223;28;20654;-27
2022/09/12 01:13:09;;;;;;;3.50;0.90;;;;;;;19.96;55.73;96678.66;10555624;28;20031;-26
2022/09/12 01:18:30;;;;;;;0.98;0.55;;;;;;;19.99;55.83;96676.06;10546865;28;20032;-26
2022/09/12 01:23:54;;;;;;;0.60;0.50;;;;;;;19.98;55.92;96671.84;10549578;28;20119;-26
2022/09/12 01:29:06;;;;;;;1.35;0.90;;;;;;;19.94;55.83;96665.13;10538825;28;20032;-27
2022/09/12 01:34:42;;;;;;;1.00;0.90;;;;;;;19.93;55.54;96671.88;10552180;28;20039;-25
2022/09/12 01:39:55;;;;;;;1.08;0.98;;;;;;;19.91;55.68;96668.50;10545448;28;20044;-27
2022/09/12 01:45:10;;;;;;;0.73;0.60;;;;;;;19.88;55.66;96654.97;10553933;28;20036;-26
2022/09/12 01:50:20;;;;;;;1.08;0.80;;;;;;;19.85;55.72;96652.47;10546976;28;20028;-29
2022/09/12 01:55:40;;;;;;;1.27;0.93;;;;;;;19.87;55.53;96650.75;10554155;28;20043;-27
2022/09/12 02:00:58;;;;;;;1.80;0.88;;;;;;;19.85;55.73;96647.41;10534587;28;20040;-27
2022/09/12 02:06:07;;;;;;;1.33;0.60;;;;;;;19.93;55.48;96645.66;10553691;28;20502;-27
2022/09/12 02:11:11;;;;;;;0.80;0.70;;;;;;;19.93;55.44;96636.31;10556789;28;20032;-26
2022/09/12 02:16:18;;;;;;;1.23;1.13;;;;;;;19.89;55.47;96626.19;10543672;28;20039;-26
2022/09/12 02:21:21;;;;;;;2.35;0.70;;;;;;;19.86;55.39;96626.22;10536246;28;20043;-26
2022/09/12 02:26:32;;;;;;;1.95;0.77;;;;;;;19.84;55.40;96626.22;10555249;28;20059;-29
2022/09/12 02:31:40;;;;;;;1.02;0.90;;;;;;;19.82;55.06;96622.00;10553379;28;20032;-26
2022/09/12 02:37:09;;;;;;;1.13;0.80;;;;;;;19.81;55.14;96626.25;10534076;28;20040;-27
2022/09/12 02:42:10;;;;;;;2.50;1.10;;;;;;;19.79;55.09;96630.50;10541644;28;20044;-27
2022/09/12 02:47:17;;;;;;;2.08;1.05;;;;;;;19.79;55.24;96632.19;10549845;28;20040;-28
2022/09/12 02:52:18;;;;;;;2.70;0.85;;;;;;;19.80;54.79;96631.31;10550700;28;20036;-26
2022/09/12 02:57:20;;;;;;;2.97;0.77;;;;;;;19.83;54.80;96631.31;10552048;28;20035;-26
2022/09/12 03:02:41;;;;;;;2.08;1.00;;;;;;;19.90;55.22;96635.47;10544219;28;20040;-26
2022/09/12 03:07:53;;;;;;;2.50;0.80;;;;;;;19.83;55.10;96634.69;10542343;28;20127;-27
2022/09/12 03:13:32;;;;;;;1.42;0.70;;;;;;;19.77;54.75;96631.34;10542783;28;20488;-27
2022/09/12 03:19:09;;;;;;;0.85;0.65;;;;;;;19.78;54.68;96620.34;10549506;28;20036;-27
2022/09/12 03:24:42;;;;;;;0.98;0.68;;;;;;;19.74;54.64;96626.28;10538721;28;20457;-27
2022/09/12 03:29:46;;;;;;;1.48;0.80;;;;;;;19.71;54.63;96624.63;10532414;28;20050;-26
2022/09/12 03:34:46;;;;;;;0.70;0.70;;;;;;;19.73;54.83;96633.06;10546804;27;20042;-27
2022/09/12 03:39:46;;;;;;;0.70;0.70;;;;;;;19.73;54.77;96627.13;10540914;28;20043;-26
2022/09/12 03:44:47;;;;;;;2.87;0.80;;;;;;;19.75;54.74;96630.53;10536046;28;20313;-27
2022/09/12 03:49:47;;;;;;;1.10;0.80;;;;;;;19.79;54.61;96632.19;10540426;28;20070;-27
2022/09/12 03:54:47;;;;;;;1.57;0.60;;;;;;;19.80;54.40;96623.69;10540504;28;20043;-27
2022/09/12 03:59:51;;;;;;;1.47;0.70;;;;;;;19.74;54.18;96623.72;10543392;28;20426;-27
2022/09/12 04:04:51;;;;;;;2.28;0.95;;;;;;;19.73;54.02;96624.59;10553422;28;20031;-27
2022/09/12 04:09:52;;;;;;;1.17;0.80;;;;;;;19.72;54.13;96610.22;10553118;28;20040;-26
2022/09/12 04:14:52;;;;;;;2.58;0.90;;;;;;;19.71;54.27;96604.31;10550229;28;20684;-27
2022/09/12 04:19:53;;;;;;;1.53;0.70;;;;;;;19.68;53.96;96608.56;10554697;28;20032;-27
2022/09/12 04:24:53;;;;;;;0.77;0.70;;;;;;;19.67;53.92;96611.94;10536502;28;20080;-26
2022/09/12 04:29:55;;;;;;;1.90;0.73;;;;;;;19.67;53.84;96617.03;10552463;28;20028;-27
2022/09/12 04:34:55;;;;;;;2.50;0.85;;;;;;;19.64;54.07;96617.03;10550237;28;20032;-26
2022/09/12 04:39:56;;;;;;;1.52;0.80;;;;;;;19.70;53.73;96625.47;10544791;28;20062;-27
2022/09/12 04:44:57;;;;;;;2.53;0.70;;;;;;;19.73;54.09;96616.97;10547491;28;20033;-27
2022/09/12 04:49:57;;;;;;;0.90;0.73;;;;;;;19.68;53.74;96619.53;10552337;28;20036;-27
2022/09/12 04:54:57;;;;;;;1.23;0.77;;;;;;;19.61;53.64;96611.97;10553982;28;20028;-26
2022/09/12 04:59:58;;;;;;;1.93;0.80;;;;;;;19.65;53.55;96621.25;10537699;28;20537;-27
2022/09/12 05:04:59;;;;;;;4.25;0.90;;;;;;;19.60;53.59;96615.38;10551364;28;20035;-26
2022/09/12 05:09:59;;;;;;;1.45;1.30;;;;;;;19.58;53.38;96617.09;10553909;28;20049;-27
2022/09/12 05:15:00;;;;;;;2.13;0.88;;;;;;;19.62;53.55;96618.75;10558235;28;20065;-26
2022/09/12 05:20:01;;;;;;;3.40;1.10;;;;;;;19.59;53.70;96608.63;10558480;28;20046;-26
2022/09/12 05:25:01;;;;;;;1.70;0.93;;;;;;;19.57;54.00;96620.47;10556179;28;20779;-26
2022/09/12 05:30:03;;;;;;;1.20;0.90;;;;;;;19.63;53.70;96618.75;10544065;28;20046;-27
2022/09/12 05:35:03;;;;;;;1.67;0.82;;;;;;;19.66;53.44;96607.72;10552176;28;20031;-27
2022/09/12 05:40:07;;;;;;;1.00;0.90;;;;;;;19.63;53.48;96600.97;10552162;28;20059;-27
2022/09/12 05:45:08;;;;;;;0.70;0.70;;;;;;;19.60;53.24;96603.50;10560929;28;20063;-27
2022/09/12 05:50:09;;;;;;;1.48;1.00;;;;;;;19.59;53.31;96608.63;10556829;28;20495;-26
2022/09/12 05:55:10;;;;;;;1.73;1.00;;;;;;;19.56;53.34;96599.31;10557840;28;20440;-27
2022/09/12 06:00:13;;;;;;;1.30;1.00;;;;;;;19.57;53.46;96605.22;10551334;28;20044;-27
2022/09/12 06:05:14;;;;;;;1.02;0.77;;;;;;;19.53;53.66;96606.97;10554443;28;20040;-27
2022/09/12 06:10:14;;;;;;;1.27;1.00;;;;;;;19.56;53.76;96608.63;10557560;28;20491;-26
2022/09/12 06:15:15;;;;;;;1.10;1.00;;;;;;;19.57;53.87;96615.38;10555451;28;20027;-27
2022/09/12 06:20:19;;;;;;;0.85;0.82;;;;;;;19.61;53.72;96619.59;10551399;28;20037;-26
2022/09/12 06:25:21;;;;;;;1.88;0.68;;;;;;;19.68;53.66;96626.34;10553903;28;20092;-27
2022/09/12 06:30:21;;;;;;;2.28;0.77;;;;;;;19.62;53.87;96618.75;10554506;28;20036;-28
2022/09/12 06:35:22;;;;;;;2.23;0.90;;;;;;;19.62;53.98;96623.81;10540642;28;20408;-27
2022/09/12 06:40:23;;;;;;;5.97;1.30;;;;;;;19.65;54.48;96628.88;10554739;28;20039;-27
2022/09/12 06:45:24;;;;;;;1.00;0.90;;;;;;;19.61;54.65;96620.44;10549527;28;20036;-27
2022/09/12 06:50:25;;;;;;;1.13;0.70;;;;;;;19.63;54.38;96620.44;10554464;28;20569;-26
2022/09/12 06:55:26;;;;;;;1.63;0.77;;;;;;;19.62;54.04;96618.75;10554954;28;20097;-27
2022/09/12 07:00:27;;;;;;;0.73;0.73;;;;;;;19.61;54.20;96617.88;10555609;28;20118;-27
2022/09/12 07:05:27;;;;;;;1.80;1.10;;;;;;;19.63;54.08;96606.03;10551236;28;20115;-26
2022/09/12 07:10:28;;;;;;;1.37;1.07;;;;;;;19.62;54.35;96604.38;10558387;28;20065;-26
2022/09/12 07:15:28;;;;;;;1.42;0.80;;;;;;;19.69;54.38;96611.06;10548729;28;20119;-27
2022/09/12 07:20:31;;;;;;;1.40;1.00;;;;;;;19.72;54.42;96600.03;10544526;28;20031;-27
2022/09/12 07:25:32;;;;;;;1.38;0.90;;;;;;;19.75;54.38;96608.50;10553373;28;20273;-27
2022/09/12 07:30:32;;;;;;;0.83;0.83;;;;;;;19.75;54.69;96600.03;10553472;28;20035;-26
2022/09/12 07:35:33;;;;;;;1.10;1.00;;;;;;;19.69;54.96;96589.91;10539878;28;20071;-27
2022/09/12 07:40:33;;;;;;;0.75;0.70;;;;;;;19.72;55.14;96605.13;10553869;28;20530;-27
2022/09/12 07:45:34;;;;;;;2.00;0.90;;;;;;;19.70;55.35;96601.75;10554742;28;20044;-28
2022/09/12 07:50:35;;;;;;;2.28;0.95;;;;;;;19.71;55.54;96606.84;10552385;28;20635;-26
2022/09/12 07:55:35;;;;;;;2.08;0.90;;;;;;;19.69;55.71;96605.97;10552767;28;20043;-27
2022/09/12 08:00:36;;;;;;;0.87;0.80;;;;;;;19.72;55.94;96605.13;10538883;28;20389;-26
2022/09/12 08:05:37;;;;;;;1.20;1.00;;;;;;;19.75;55.81;96600.03;10546767;28;20036;-26
2022/09/12 08:10:37;;;;;;;1.97;0.90;;;;;;;19.81;55.27;96605.06;10560651;28;20024;-26
2022/09/12 08:15:37;;;;;;;1.10;0.97;;;;;;;19.86;55.15;96608.44;10552593;28;20563;-26
2022/09/12 08:20:38;;;;;;;1.47;1.10;;;;;;;19.82;55.48;96597.44;10538525;28;20032;-27
2022/09/12 08:25:38;;;;;;;1.20;0.80;;;;;;;19.81;55.48;96599.97;10552060;28;20031;-27
2022/09/12 08:30:38;;;;;;;1.10;0.97;;;;;;;19.81;55.42;96595.75;10548326;28;20027;-26
2022/09/12 08:35:39;;;;;;;1.63;0.80;;;;;;;19.80;55.47;96603.38;10538354;28;20036;-26
2022/09/12 08:40:54;;;;;;;1.30;1.17;;;;;;;19.81;55.54;96610.13;10552655;28;20068;-27
2022/09/12 08:46:07;;;;;;;1.10;0.80;;;;;;;19.81;55.40;96599.97;10543987;28;20031;-26
2022/09/12 08:51:12;;;;;;;0.70;0.70;;;;;;;19.80;55.66;96598.28;10559616;28;20407;-27
2022/09/12 08:56:14;;;;;;;3.45;0.75;;;;;;;19.80;55.72;96606.78;10560135;27;20529;-27
2022/09/12 09:01:34;;;;;;;1.33;0.85;;;;;;;19.89;55.54;96609.25;10558681;28;20032;-27
2022/09/12 09:06:49;;;;;;;0.77;0.73;;;;;;;19.94;55.34;96604.97;10552471;28;20035;-26
2022/09/12 09:11:57;;;;;;;1.67;1.10;;;;;;;19.94;55.45;96597.34;10550502;28;20507;-26
2022/09/12 09:16:59;;;;;;;3.03;0.85;;;;;;;19.93;55.60;96605.81;10555855;27;20119;-26
2022/09/12 09:22:05;;;;;;;1.17;0.70;;;;;;;19.90;55.77;96605.00;10556237;28;20035;-26
2022/09/12 09:27:20;;;;;;;1.65;0.95;;;;;;;19.90;55.63;96602.44;10560060;28;20432;-27
2022/09/12 09:32:52;;;;;;;1.40;0.77;;;;;;;19.82;55.89;96594.91;10555777;28;20024;-27
2022/09/12 09:38:00;;;;;;;2.33;1.38;;;;;;;19.85;56.00;96592.31;10531962;28;20462;-27
2022/09/12 09:43:19;;;;;;;1.30;0.80;;;;;;;19.85;56.22;96591.50;10558789;28;20092;-26
2022/09/12 09:48:35;;;;;;;1.30;1.17;;;;;;;19.86;56.19;96583.84;10555645;28;20118;-25
2022/09/12 09:53:40;;;;;;;;;;;;;;;20.01;55.87;96580.38;10555140;28;20036;-26
2022/09/12 09:58:40;;;;;;;3.05;1.17;;;;;;;20.07;55.72;96577.78;10544183;28;19916;-27
2022/09/12 10:03:48;;;;;;;1.60;0.90;;;;;;;20.06;55.33;96578.66;10557901;28;20032;-26
2022/09/12 10:08:50;;;;;;;0.85;0.80;;;;;;;20.05;55.61;96579.50;10550575;28;20297;-27
2022/09/12 10:13:53;;;;;;;2.83;1.20;;;;;;;20.02;55.51;96574.41;10555844;28;20028;-25
2022/09/12 10:18:56;;;;;;;1.33;0.85;;;;;;;19.99;55.72;96574.44;10558913;28;20096;-27
2022/09/12 10:24:15;;;;;;;1.30;1.20;;;;;;;20.09;55.64;96576.09;10546339;28;20039;-28
2022/09/12 10:29:30;;;;;;;1.00;0.90;;;;;;;20.03;55.76;96571.03;10547427;28;20046;-27
2022/09/12 10:34:41;;;;;;;2.15;1.27;;;;;;;20.14;55.60;96574.34;10554868;28;20040;-27
2022/09/12 10:39:52;;;;;;;0.82;0.82;;;;;;;20.10;55.78;96563.34;10544374;28;20036;-27
2022/09/12 10:44:53;;;;;;;2.60;1.00;;;;;;;20.27;55.70;96553.03;10551321;28;20036;-26
2022/09/12 10:50:21;;;;;;;2.55;1.00;;;;;;;20.35;55.55;96564.81;10556500;28;20427;-27
2022/09/12 10:55:31;;;;;;;8.52;1.88;;;;;;;20.34;55.64;96562.31;10553355;28;20627;-27
2022/09/12 11:00:39;;;;;;;4.68;1.10;;;;;;;20.24;55.67;96561.53;10549354;28;20632;-27
2022/09/12 11:05:50;;;;;;;3.08;1.00;;;;;;;20.28;55.31;96560.63;10542031;28;20062;-26
2022/09/12 11:11:03;;;;;;;2.72;0.80;;;;;;;20.08;55.93;96547.28;10560559;28;20061;-26
2022/09/12 11:16:21;;;;;;;1.23;0.77;;;;;;;20.05;56.18;96552.41;10554197;28;20060;-27
2022/09/12 11:21:38;;;;;;;4.15;0.90;;;;;;;20.13;55.67;96547.25;10534254;28;20043;-26
2022/09/12 11:26:45;;;;;;;1.17;0.93;;;;;;;20.12;56.01;96545.56;10540841;28;20040;-27
2022/09/12 11:31:57;;;;;;;0.98;0.70;;;;;;;20.09;56.16;96545.59;10546951;28;20403;-26
2022/09/12 11:37:07;;;;;;;6.97;1.20;;;;;;;20.25;56.37;96542.88;10539162;28;20042;-27
2022/09/12 11:42:22;;;;;;;10.05;1.50;;;;;;;20.36;56.55;96541.06;10553956;28;20158;-26
2022/09/12 11:47:25;;;;;;;9.80;2.35;;;;;;;20.40;56.32;96522.38;10545393;28;20036;-26
2022/09/12 11:52:32;;;;;;;8.68;1.65;;;;;;;20.42;56.95;96524.94;10552509;28;20075;-28
2022/09/12 11:57:44;;;;;;;3.80;1.45;;;;;;;20.29;56.22;96523.34;10559858;28;20495;-26
2022/09/12 12:03:08;;;;;;;5.70;1.02;;;;;;;20.30;56.33;96518.25;10549027;28;20490;-26
2022/09/12 12:08:09;;;;;;;24.92;3.85;;;;;;;20.40;57.38;96507.13;10527699;28;20048;-27
2022/09/12 12:13:32;;;;;;;41.50;4.75;;;;;;;20.50;58.02;96504.47;10555817;28;20460;-27
2022/09/12 12:18:36;;;;;;;15.32;2.95;;;;;;;20.47;57.78;96509.59;10551216;28;20039;-27
2022/09/12 12:23:36;;;;;;;6.47;1.80;;;;;;;20.31;56.71;96501.28;10553908;28;20639;-26
2022/09/12 12:28:40;;;;;;;1.00;0.90;;;;;;;20.26;56.57;96508.16;10552451;28;20084;-27
2022/09/12 12:33:43;;;;;;;6.97;1.42;;;;;;;20.47;57.21;96494.31;10548461;28;20518;-27
2022/09/12 12:38:43;;;;;;;12.30;1.60;;;;;;;20.56;56.98;96494.22;10538547;28;20043;-27
2022/09/12 12:43:45;;;;;;;9.93;1.50;;;;;;;20.55;57.06;96496.78;10553901;28;20096;-28
2022/09/12 12:48:51;;;;;;;9.60;1.75;;;;;;;20.54;57.59;96485.78;10546586;28;20285;-28
2022/09/12 12:53:52;;;;;;;;;;;;;;;20.33;56.65;96486.88;10544244;28;20035;-26
2022/09/12 12:59:02;;;;;;;11.13;1.70;;;;;;;20.42;58.06;96483.38;10537790;28;20486;-27
2022/09/12 13:04:11;;;;;;;9.32;1.90;;;;;;;20.45;57.96;96479.97;10533202;28;20047;-26
2022/09/12 13:09:20;;;;;;;9.57;2.15;;;;;;;20.46;57.72;96472.28;10535993;28;20032;-27
2022/09/12 13:14:50;;;;;;;3.78;1.00;;;;;;;20.47;57.73;96466.34;10540331;28;20190;-26
2022/09/12 13:20:07;;;;;;;8.40;2.47;;;;;;;20.43;57.83;96462.19;10528485;28;20036;-27
2022/09/12 13:25:33;;;;;;;2.33;1.00;;;;;;;20.52;57.39;96464.59;10537608;28;20124;-26
2022/09/12 13:30:36;;;;;;;4.13;1.40;;;;;;;20.60;57.16;96460.28;10543485;28;20134;-27
2022/09/12 13:35:49;;;;;;;4.85;0.95;;;;;;;20.47;56.92;96458.72;10524630;28;20036;-26
2022/09/12 13:41:21;;;;;;;6.70;1.10;;;;;;;20.51;57.19;96455.28;10551321;28;20036;-27
2022/09/12 13:46:31;;;;;;;3.97;1.33;;;;;;;20.53;57.37;96456.13;10547742;28;20039;-27
2022/09/12 13:51:32;;;;;;;4.43;1.20;;;;;;;20.49;57.38;96451.94;10557040;28;20039;-26
2022/09/12 13:56:32;;;;;;;6.05;1.38;;;;;;;20.40;57.32;96435.94;10546781;28;20608;-27
2022/09/12 14:01:38;;;;;;;4.28;1.25;;;;;;;20.43;56.80;96435.88;10517562;28;20708;-27
2022/09/12 14:06:47;;;;;;;5.55;1.70;;;;;;;20.51;57.34;96434.94;10514475;28;20074;-26
2022/09/12 14:11:50;;;;;;;6.03;1.75;;;;;;;20.51;57.61;96434.94;10521681;28;20664;-27
2022/09/12 14:16:51;;;;;;;4.55;1.38;;;;;;;20.50;57.46;96424.78;10551704;28;20051;-27
2022/09/12 14:21:52;;;;;;;3.20;1.40;;;;;;;20.60;57.74;96423.81;10535911;28;20057;-26
2022/09/12 14:26:55;;;;;;;4.47;1.42;;;;;;;20.64;57.59;96421.19;10558229;28;20035;-28
2022/09/12 14:32:01;;;;;;;18.92;1.88;;;;;;;20.62;57.77;96422.09;10551567;28;20027;-26
2022/09/12 14:37:05;;;;;;;4.57;1.23;;;;;;;20.57;57.95;96414.50;10541887;28;20075;-26
2022/09/12 14:42:19;;;;;;;2.58;2.03;;;;;;;20.60;57.93;96403.44;10555940;28;20066;-26
2022/09/12 14:47:31;;;;;;;1.92;1.30;;;;;;;20.61;58.07;96411.06;10552659;28;20040;-27
2022/09/12 14:52:33;;;;;;;1.58;1.20;;;;;;;20.58;58.14;96403.50;10555383;28;20388;-27
2022/09/12 14:57:39;;;;;;;1.73;0.95;;;;;;;20.50;57.37;96402.75;10563034;28;20063;-27
2022/09/12 15:02:41;;;;;;;3.33;1.23;;;;;;;20.54;58.14;96393.38;10547107;28;20039;-26
2022/09/12 15:07:53;;;;;;;2.47;1.10;;;;;;;20.55;58.43;96393.34;10547607;28;20151;-26
2022/09/12 15:13:13;;;;;;;3.15;1.10;;;;;;;20.59;58.06;96399.22;10557239;28;20031;-27
2022/09/12 15:18:13;;;;;;;1.98;1.10;;;;;;;20.66;57.84;96391.50;10553331;28;20104;-27
2022/09/12 15:23:24;;;;;;;3.20;1.00;;;;;;;20.66;58.09;96388.13;10547997;28;20085;-26
2022/09/12 15:28:25;;;;;;;1.60;1.20;;;;;;;20.65;58.54;96396.63;10540740;28;20064;-27
2022/09/12 15:33:26;;;;;;;3.47;1.30;;;;;;;20.62;58.13;96392.41;10555730;28;20525;-28
2022/09/12 15:38:26;;;;;;;2.23;1.30;;;;;;;20.61;58.48;96394.97;10540171;28;20028;-26
2022/09/12 15:43:27;;;;;;;1.87;1.00;;;;;;;20.64;58.71;96392.38;10551934;28;20698;-27
2022/09/12 15:48:27;;;;;;;2.10;1.37;;;;;;;20.63;58.39;96385.63;10556231;28;20280;-26
2022/09/12 15:53:28;;;;;;;1.60;1.15;;;;;;;20.63;58.87;96378.81;10550524;28;20300;-27
2022/09/12 15:58:28;;;;;;;2.60;0.90;;;;;;;20.64;58.83;96380.50;10554881;28;20572;-26
2022/09/12 16:03:29;;;;;;;5.07;1.27;;;;;;;20.66;58.89;96376.25;10545801;28;20373;-25
2022/09/12 16:08:30;;;;;;;2.90;1.05;;;;;;;20.74;59.43;96371.03;10538563;28;20097;-27
2022/09/12 16:13:31;;;;;;;5.13;0.95;;;;;;;20.75;58.71;96357.44;10540106;28;20490;-27
2022/09/12 16:18:31;;;;;;;2.00;1.00;;;;;;;20.64;58.36;96352.50;10529018;28;20044;-27
2022/09/12 16:23:31;;;;;;;2.03;1.00;;;;;;;20.63;58.14;96350.00;10519384;28;20039;-26
2022/09/12 16:28:32;;;;;;;2.90;1.20;;;;;;;20.68;59.50;96355.84;10540587;28;20028;-27
2022/09/12 16:33:33;;;;;;;1.83;1.02;;;;;;;20.65;59.18;96361.81;10553386;28;20020;-26
2022/09/12 16:38:49;;;;;;;4.68;1.45;;;;;;;20.68;59.97;96351.63;10539487;28;20039;-28
2022/09/12 16:43:50;;;;;;;3.35;1.40;;;;;;;20.66;59.72;96353.34;10524151;28;20024;-27
2022/09/12 16:48:52;;;;;;;2.55;1.35;;;;;;;20.57;58.29;96348.38;10549129;28;20032;-26
2022/09/12 16:53:53;;;;;;;1.67;0.85;;;;;;;20.56;58.36;96345.88;10553226;28;20051;-26
2022/09/12 16:58:54;;;;;;;2.38;0.90;;;;;;;20.67;59.26;96357.56;10545801;28;20042;-27
2022/09/12 17:03:56;;;;;;;2.53;1.25;;;;;;;20.77;59.87;96356.56;10541513;28;20623;-26
2022/09/12 17:08:59;;;;;;;2.85;1.23;;;;;;;20.65;59.93;96344.00;10553184;27;20114;-26
2022/09/12 17:14:00;;;;;;;4.90;1.50;;;;;;;20.70;59.46;96354.97;10551047;28;20019;-27
2022/09/12 17:19:01;;;;;;;2.15;0.80;;;;;;;20.53;58.03;96351.84;10555463;28;20517;-27
2022/09/12 17:24:03;;;;;;;2.03;1.13;;;;;;;20.45;58.18;96368.91;10543630;28;20036;-27
2022/09/12 17:29:03;;;;;;;1.33;0.82;;;;;;;20.39;58.16;96358.78;10540087;28;20044;-27
2022/09/12 17:34:04;;;;;;;1.23;0.80;;;;;;;20.40;57.86;96367.28;10539827;28;20093;-27
2022/09/12 17:39:05;;;;;;;0.75;0.73;;;;;;;20.37;57.61;96369.03;10536139;28;20039;-27
2022/09/12 17:44:06;;;;;;;1.85;1.13;;;;;;;20.35;57.97;96361.41;10562253;28;20039;-27
2022/09/12 17:49:10;;;;;;;5.88;1.52;;;;;;;20.35;58.31;96353.78;10557789;28;20040;-27
2022/09/12 17:54:16;;;;;;;5.40;1.30;;;;;;;20.58;59.94;96357.72;10558552;28;20035;-27
2022/09/12 17:59:22;;;;;;;16.40;4.97;;;;;;;20.64;60.43;96359.31;10555346;28;20075;-27
2022/09/12 18:04:23;;;;;;;18.05;3.33;;;;;;;20.55;59.26;96367.91;10553300;28;20039;-25
2022/09/12 18:09:26;;;;;;;9.80;1.45;;;;;;;20.44;58.65;96377.38;10539709;28;20441;-27
2022/09/12 18:14:27;;;;;;;1.77;1.10;;;;;;;20.33;58.34;96362.31;10543349;28;20449;-27
2022/09/12 18:19:27;;;;;;;6.75;1.50;;;;;;;20.35;58.20;96386.00;10555160;28;20052;-28
2022/09/12 18:24:28;;;;;;;1.40;0.70;;;;;;;20.29;58.31;96374.22;10540947;28;20032;-27
2022/09/12 18:29:29;;;;;;;2.60;1.00;;;;;;;20.28;58.64;96379.31;10545562;28;20096;-26
2022/09/12 18:34:29;;;;;;;2.95;1.25;;;;;;;20.29;58.79;96375.91;10549709;28;20443;-26
2022/09/12 18:39:30;;;;;;;1.58;1.00;;;;;;;20.29;58.86;96391.16;10543205;28;20036;-26
2022/09/12 18:44:30;;;;;;;1.73;1.00;;;;;;;20.30;58.67;96403.00;10551175;28;20123;-26
2022/09/12 18:49:31;;;;;;;2.45;1.38;;;;;;;20.31;58.87;96394.50;10543754;28;20673;-26
2022/09/12 18:54:32;;;;;;;2.78;1.20;;;;;;;20.30;58.91;96392.84;10552322;28;20043;-26
2022/09/12 18:59:32;;;;;;;1.98;1.35;;;;;;;20.30;58.88;96392.84;10555193;27;20032;-26
2022/09/12 19:04:33;;;;;;;1.17;0.90;;;;;;;20.23;59.22;96396.31;10554808;28;20097;-27
2022/09/12 19:09:33;;;;;;;1.15;1.00;;;;;;;20.20;59.32;96401.44;10547765;28;20293;-26
2022/09/12 19:14:33;;;;;;;2.10;1.10;;;;;;;20.18;59.57;96404.00;10541352;28;20400;-27
2022/09/12 19:19:34;;;;;;;4.33;1.30;;;;;;;20.15;59.85;96398.09;10554023;28;20510;-26
2022/09/12 19:24:34;;;;;;;1.87;1.00;;;;;;;20.14;59.85;96393.88;10544839;28;20667;-27
2022/09/12 19:29:35;;;;;;;1.33;1.13;;;;;;;20.15;59.81;96408.25;10540714;28;20514;-26
2022/09/12 19:34:35;;;;;;;1.53;1.23;;;;;;;20.14;59.74;96396.41;10551296;28;20037;-27
2022/09/12 19:39:35;;;;;;;3.23;1.33;;;;;;;20.16;59.53;96404.84;10533728;28;20039;-25
2022/09/12 19:44:36;;;;;;;1.83;0.90;;;;;;;20.17;59.52;96396.41;10557285;28;20087;-27
2022/09/12 19:49:36;;;;;;;0.83;0.77;;;;;;;20.20;59.19;96397.22;10558653;28;20032;-26
2022/09/12 19:54:37;;;;;;;1.37;1.10;;;;;;;20.18;59.10;96391.28;10550742;28;20035;-27
2022/09/12 19:59:38;;;;;;;2.88;1.30;;;;;;;20.15;59.04;96393.00;10550889;28;20288;-27
2022/09/12 20:04:38;;;;;;;1.90;1.10;;;;;;;20.16;58.92;96402.31;10552940;28;20399;-27
2022/09/12 20:09:39;;;;;;;1.38;1.15;;;;;;;20.14;58.97;96396.41;10546770;28;20697;-27
2022/09/12 20:14:40;;;;;;;1.40;1.00;;;;;;;20.11;59.09;96393.91;10550821;28;20051;-26
2022/09/12 20:19:40;;;;;;;1.45;1.05;;;;;;;20.12;58.83;96398.13;10554209;28;20148;-25
2022/09/12 20:24:40;;;;;;;1.67;0.97;;;;;;;20.11;58.74;96396.47;10541915;28;20036;-26
2022/09/12 20:29:41;;;;;;;2.50;1.13;;;;;;;20.07;58.71;96394.81;10549684;28;20036;-26
2022/09/12 20:34:41;;;;;;;5.00;1.10;;;;;;;20.10;58.51;96395.59;10544459;28;20040;-27
2022/09/12 20:39:41;;;;;;;1.20;1.10;;;;;;;20.14;58.37;96391.34;10552233;28;20085;-26
2022/09/12 20:44:42;;;;;;;1.10;1.00;;;;;;;20.08;58.38;96371.09;10565969;28;20062;-26
2022/09/12 20:49:42;;;;;;;2.13;1.20;;;;;;;20.14;58.27;96378.63;10561311;28;20406;-27
2022/09/12 20:54:42;;;;;;;0.93;0.80;;;;;;;20.12;58.03;96377.81;10557859;28;20043;-26
2022/09/12 20:59:43;;;;;;;1.00;0.90;;;;;;;20.15;58.14;96367.59;10547909;28;20168;-28
2022/09/12 21:04:43;;;;;;;5.53;1.30;;;;;;;20.11;57.91;96353.25;10551543;27;20046;-28
2022/09/12 21:09:44;;;;;;;1.23;1.13;;;;;;;20.16;57.96;96352.34;10550835;28;20119;-28
2022/09/12 21:14:44;;;;;;;1.17;1.07;;;;;;;20.10;57.81;96357.50;10559559;28;20368;-27
2022/09/12 21:19:44;;;;;;;0.80;0.80;;;;;;;20.09;57.81;96354.97;10554786;27;20051;-27
2022/09/12 21:24:45;;;;;;;0.70;0.70;;;;;;;20.05;57.51;96356.72;10546731;28;20036;-27
2022/09/12 21:29:45;;;;;;;1.00;0.70;;;;;;;20.11;57.44;96348.19;10556464;28;20671;-28
2022/09/12 21:34:45;;;;;;;0.80;0.70;;;;;;;20.10;57.36;96349.84;10556803;28;20519;-27
2022/09/12 21:39:46;;;;;;;0.87;0.80;;;;;;;20.09;57.10;96347.34;10550017;28;20032;-28
2022/09/12 21:44:46;;;;;;;0.80;0.77;;;;;;;20.06;57.08;96360.94;10559743;28;20035;-27
2022/09/12 21:49:46;;;;;;;2.00;0.80;;;;;;;20.05;57.04;96350.78;10557894;28;20039;-27
2022/09/12 21:54:47;;;;;;;1.63;0.80;;;;;;;20.04;56.70;96359.22;10556128;28;20038;-27
2022/09/12 21:59:47;;;;;;;0.97;0.60;;;;;;;20.03;56.57;96360.09;10556670;28;20115;-27
2022/09/12 22:04:49;;;;;;;1.37;0.67;;;;;;;20.00;56.33;96362.69;10558444;28;20296;-28
2022/09/12 22:09:50;;;;;;;1.00;0.70;;;;;;;19.96;56.28;96353.41;10551652;28;20047;-27
2022/09/12 22:14:50;;;;;;;0.95;0.70;;;;;;;19.95;55.96;96355.13;10552046;28;20036;-27
2022/09/12 22:19:50;;;;;;;1.90;0.60;;;;;;;19.97;56.34;96348.31;10553548;28;20032;-27
2022/09/12 22:24:52;;;;;;;1.07;0.50;;;;;;;20.02;56.26;96345.72;10542270;28;20044;-27
2022/09/12 22:29:52;;;;;;;2.33;0.80;;;;;;;20.07;56.33;96354.13;10555689;28;20035;-27
2022/09/12 22:34:53;;;;;;;0.70;0.67;;;;;;;20.02;56.07;96345.72;10554950;28;20369;-28
2022/09/12 22:39:53;;;;;;;0.50;0.50;;;;;;;19.99;55.94;96340.66;10544654;28;20043;-27
2022/09/12 22:44:53;;;;;;;1.17;0.80;;;;;;;20.01;55.86;96338.94;10551620;28;20032;-27
2022/09/12 22:49:54;;;;;;;1.43;0.70;;;;;;;20.00;55.77;96327.94;10543671;28;20028;-27
2022/09/12 22:54:54;;;;;;;0.77;0.67;;;;;;;19.95;55.61;96333.94;10554066;28;20028;-26
2022/09/12 22:59:54;;;;;;;0.73;0.50;;;;;;;19.95;55.40;96329.72;10550456;28;20032;-27
2022/09/12 23:04:55;;;;;;;2.57;0.30;;;;;;;19.95;54.99;96333.94;10555942;28;20040;-27
2022/09/12 23:09:55;;;;;;;1.13;0.50;;;;;;;19.93;55.32;96328.03;10552358;28;20039;-27
2022/09/12 23:14:56;;;;;;;1.15;0.60;;;;;;;19.94;55.45;96328.00;10548506;28;20031;-27
2022/09/12 23:19:56;;;;;;;0.30;0.30;;;;;;;20.01;55.23;96328.78;10553518;28;20040;-27
2022/09/12 23:24:56;;;;;;;0.80;0.60;;;;;;;20.01;55.06;96323.72;10553039;28;20036;-27
2022/09/12 23:29:57;;;;;;;0.50;0.50;;;;;;;20.00;55.24;96311.88;10541289;28;20028;-27
2022/09/12 23:34:57;;;;;;;0.63;0.47;;;;;;;19.97;55.12;96294.94;10550464;28;20066;-27